createdAt,value
2022-10-23T00:01:34.232Z,7.22
2022-10-23T00:04:07.665Z,7.40
2022-10-23T00:06:36.011Z,7.13
2022-10-23T00:09:07.163Z,7.97
2022-10-23T00:11:35.687Z,8.30
2022-10-23T00:14:06.625Z,8.13
2022-10-23T00:16:34.779Z,7.00
2022-10-23T00:19:02.078Z,6.97
2022-10-23T00:21:29.375Z,7.13
2022-10-23T00:23:56.875Z,6.05
2022-10-23T00:26:24.283Z,6.10
2022-10-23T00:28:53.580Z,5.80
2022-10-23T00:31:22.164Z,6.05
2022-10-23T00:33:49.913Z,6.05
2022-10-23T00:36:18.881Z,5.53
2022-10-23T00:38:47.503Z,5.97
2022-10-23T00:41:18.659Z,5.82
2022-10-23T00:44:06.215Z,6.13
2022-10-23T00:46:34.473Z,6.30
2022-10-23T00:49:03.470Z,6.32
2022-10-23T00:51:38.395Z,6.45
2022-10-23T00:57:00.612Z,6.05
2022-10-23T00:59:29.392Z,6.15
2022-10-23T01:01:56.915Z,6.28
2022-10-23T01:04:25.537Z,5.97
2022-10-23T01:07:17.033Z,5.60
2022-10-23T01:10:14.391Z,5.60
2022-10-23T01:15:47.016Z,6.00
2022-10-23T01:18:38.700Z,5.90
2022-10-23T01:21:53.539Z,5.90
2022-10-23T01:24:37.637Z,6.57
2022-10-23T01:27:13.869Z,5.97
2022-10-23T01:29:50.649Z,6.35
2022-10-23T01:32:48.535Z,6.43
2022-10-23T01:35:26.629Z,5.82
2022-10-23T01:38:18.325Z,6.15
2022-10-23T01:41:13.743Z,5.78
2022-10-23T01:43:56.927Z,5.70
2022-10-23T01:46:28.429Z,5.72
2022-10-23T01:48:58.672Z,5.88
2022-10-23T01:51:29.199Z,6.30
2022-10-23T01:54:06.474Z,5.35
2022-10-23T01:56:38.182Z,5.25
2022-10-23T01:59:11.007Z,5.72
2022-10-23T02:01:44.704Z,5.68
2022-10-23T02:04:18.009Z,6.15
2022-10-23T02:06:45.981Z,5.55
2022-10-23T02:09:13.353Z,5.50
2022-10-23T02:11:51.633Z,5.60
2022-10-23T02:14:52.161Z,5.60
2022-10-23T02:17:51.269Z,6.03
2022-10-23T02:20:26.628Z,6.25
2022-10-23T02:23:19.985Z,5.40
2022-10-23T02:25:53.864Z,5.15
2022-10-23T02:28:28.193Z,5.07
2022-10-23T02:31:00.711Z,5.47
2022-10-23T02:33:31.211Z,5.28
2022-10-23T02:35:58.648Z,5.57
2022-10-23T02:38:43.498Z,5.22
2022-10-23T02:41:29.911Z,5.32
2022-10-23T02:44:41.863Z,4.80
2022-10-23T02:47:37.249Z,4.90
2022-10-23T02:50:24.848Z,5.13
2022-10-23T02:53:16.638Z,5.13
2022-10-23T02:56:29.450Z,4.97
2022-10-23T02:59:25.054Z,5.15
2022-10-23T03:02:03.113Z,4.85
2022-10-23T03:04:32.964Z,5.28
2022-10-23T03:07:00.468Z,5.03
2022-10-23T03:09:28.874Z,5.40
2022-10-23T03:11:56.568Z,5.30
2022-10-23T03:14:25.149Z,4.50
2022-10-23T03:16:52.680Z,5.45
2022-10-23T03:19:20.030Z,4.78
2022-10-23T03:21:47.346Z,5.00
2022-10-23T03:24:14.724Z,4.90
2022-10-23T03:26:43.991Z,5.10
2022-10-23T03:29:11.352Z,4.65
2022-10-23T03:31:44.898Z,4.97
2022-10-23T03:34:13.464Z,4.82
2022-10-23T03:36:41.558Z,4.70
2022-10-23T03:39:10.021Z,4.63
2022-10-23T03:41:37.245Z,4.70
2022-10-23T03:46:37.269Z,4.45
2022-10-23T03:49:05.910Z,4.03
2022-10-23T03:51:33.746Z,4.85
2022-10-23T03:54:01.218Z,3.50
2022-10-23T03:56:28.596Z,4.25
2022-10-23T03:58:55.831Z,3.83
2022-10-23T04:01:26.782Z,4.20
2022-10-23T04:03:54.841Z,3.63
2022-10-23T04:06:24.765Z,3.90
2022-10-23T04:08:56.260Z,4.30
2022-10-23T04:11:23.569Z,4.00
2022-10-23T04:13:50.859Z,4.15
2022-10-23T04:16:18.462Z,3.75
2022-10-23T04:18:46.064Z,3.90
2022-10-23T04:21:13.370Z,3.90
2022-10-23T04:23:40.726Z,3.63
2022-10-23T04:28:43.301Z,3.83
2022-10-23T04:31:10.799Z,3.92
2022-10-23T04:33:41.219Z,3.83
2022-10-23T04:36:09.410Z,4.07
2022-10-23T04:38:36.705Z,3.65
2022-10-23T04:41:06.586Z,4.00
2022-10-23T04:43:34.681Z,3.75
2022-10-23T04:46:03.868Z,3.78
2022-10-23T04:48:31.181Z,4.18
2022-10-23T04:51:17.284Z,4.68
2022-10-23T04:54:03.038Z,4.90
2022-10-23T04:56:47.283Z,4.80
2022-10-23T04:59:21.184Z,4.40
2022-10-23T05:01:49.269Z,4.15
2022-10-23T05:04:18.017Z,4.47
2022-10-23T05:07:04.119Z,4.60
2022-10-23T05:09:54.123Z,4.25
2022-10-23T05:12:50.370Z,4.25
2022-10-23T05:15:18.100Z,4.00
2022-10-23T05:17:48.406Z,3.90
2022-10-23T05:20:20.422Z,4.25
2022-10-23T05:22:51.469Z,3.70
2022-10-23T05:25:21.468Z,3.58
2022-10-23T05:27:53.296Z,3.95
2022-10-23T05:30:21.823Z,3.70
2022-10-23T05:32:49.508Z,3.97
2022-10-23T05:35:23.496Z,3.63
2022-10-23T05:37:53.998Z,3.67
2022-10-23T05:40:24.446Z,4.45
2022-10-23T05:42:58.336Z,4.00
2022-10-23T05:45:40.856Z,3.83
2022-10-23T05:51:23.661Z,3.63
2022-10-23T05:54:20.158Z,4.03
2022-10-23T05:59:48.792Z,4.20
2022-10-23T06:02:19.279Z,4.50
2022-10-23T06:04:54.229Z,3.92
2022-10-23T06:07:39.814Z,3.78
2022-10-23T06:10:08.387Z,4.20
2022-10-23T06:12:40.278Z,4.13
2022-10-23T06:15:11.144Z,4.20
2022-10-23T06:18:07.703Z,4.35
2022-10-23T06:20:39.693Z,4.45
2022-10-23T06:23:21.379Z,4.55
2022-10-23T06:26:12.635Z,4.30
2022-10-23T06:28:56.182Z,4.60
2022-10-23T06:31:28.136Z,3.92
2022-10-23T06:33:58.250Z,3.78
2022-10-23T06:36:26.539Z,3.85
2022-10-23T06:41:50.678Z,3.63
2022-10-23T06:44:37.878Z,4.03
2022-10-23T06:47:14.586Z,4.28
2022-10-23T06:50:11.757Z,4.10
2022-10-23T06:55:17.544Z,5.05
2022-10-23T06:57:45.288Z,4.60
2022-10-23T07:00:13.859Z,4.47
2022-10-23T07:02:49.874Z,4.10
2022-10-23T07:05:17.750Z,4.55
2022-10-23T07:07:45.264Z,4.93
2022-10-23T07:10:16.362Z,4.18
2022-10-23T07:12:49.097Z,4.45
2022-10-23T07:15:52.075Z,3.90
2022-10-23T07:18:25.338Z,4.65
2022-10-23T07:21:11.088Z,4.22
2022-10-23T07:23:40.534Z,5.30
2022-10-23T07:26:17.076Z,4.38
2022-10-23T07:28:47.849Z,4.25
2022-10-23T07:31:23.056Z,4.07
2022-10-23T07:34:11.722Z,4.30
2022-10-23T07:36:40.520Z,4.68
2022-10-23T07:39:07.949Z,4.28
2022-10-23T07:41:42.033Z,4.90
2022-10-23T07:44:09.431Z,4.45
2022-10-23T07:46:36.887Z,4.63
2022-10-23T07:49:04.463Z,4.53
2022-10-23T07:51:32.063Z,4.32
2022-10-23T07:54:00.548Z,5.00
2022-10-23T07:56:50.911Z,5.20
2022-10-23T07:59:22.035Z,4.75
2022-10-23T08:01:55.794Z,4.68
2022-10-23T08:04:28.655Z,5.30
2022-10-23T08:07:10.404Z,5.65
2022-10-23T08:09:41.993Z,5.03
2022-10-23T08:12:10.191Z,5.22
2022-10-23T08:14:37.512Z,4.80
2022-10-23T08:17:10.136Z,5.45
2022-10-23T08:20:01.375Z,4.90
2022-10-23T08:22:37.162Z,5.20
2022-10-23T08:25:05.068Z,6.22
2022-10-23T08:27:32.430Z,5.78
2022-10-23T08:29:59.786Z,5.25
2022-10-23T08:32:31.308Z,5.05
2022-10-23T08:35:00.406Z,5.10
2022-10-23T08:37:30.950Z,5.32
2022-10-23T08:39:58.904Z,5.38
2022-10-23T08:43:10.634Z,5.32
2022-10-23T08:46:13.265Z,5.53
2022-10-23T08:49:26.956Z,5.70
2022-10-23T08:52:14.152Z,5.60
2022-10-23T08:54:53.376Z,5.78
2022-10-23T08:57:26.855Z,6.53
2022-10-23T09:00:08.379Z,6.45
2022-10-23T09:02:43.330Z,6.13
2022-10-23T09:05:17.857Z,6.80
2022-10-23T09:07:56.867Z,6.43
2022-10-23T09:10:46.986Z,6.78
2022-10-23T09:13:35.201Z,6.45
2022-10-23T09:16:31.219Z,6.43
2022-10-23T09:21:29.402Z,6.32
2022-10-23T09:23:57.161Z,6.25
2022-10-23T09:26:24.450Z,5.68
2022-10-23T09:29:06.463Z,5.60
2022-10-23T09:31:33.775Z,5.18
2022-10-23T09:34:02.141Z,5.65
2022-10-23T09:36:30.035Z,5.65
2022-10-23T09:38:59.845Z,5.10
2022-10-23T09:41:31.319Z,5.20
2022-10-23T09:44:21.663Z,4.32
2022-10-23T09:46:54.172Z,4.50
2022-10-23T09:49:30.610Z,5.03
2022-10-23T09:52:05.975Z,5.50
2022-10-23T09:54:56.252Z,4.57
2022-10-23T09:57:45.101Z,4.35
2022-10-23T10:00:14.359Z,4.63
2022-10-23T10:02:44.430Z,4.00
2022-10-23T10:05:33.406Z,4.50
2022-10-23T10:08:24.475Z,3.88
2022-10-23T10:10:58.178Z,4.90
2022-10-23T10:13:34.242Z,5.00
2022-10-23T10:16:21.501Z,5.15
2022-10-23T10:18:57.847Z,4.85
2022-10-23T10:22:15.415Z,4.68
2022-10-23T10:24:51.833Z,4.63
2022-10-23T10:27:28.388Z,4.60
2022-10-23T10:30:01.548Z,4.45
2022-10-23T10:32:43.963Z,4.55
2022-10-23T10:35:47.462Z,4.63
2022-10-23T10:38:17.914Z,4.90
2022-10-23T10:41:06.481Z,4.45
2022-10-23T10:43:39.482Z,5.15
2022-10-23T10:46:40.273Z,3.85
2022-10-23T10:49:19.906Z,3.80
2022-10-23T10:52:14.596Z,3.53
2022-10-23T10:55:15.292Z,3.88
2022-10-23T10:57:47.781Z,4.20
2022-10-23T11:00:21.109Z,3.88
2022-10-23T11:03:40.293Z,3.65
2022-10-23T11:06:15.523Z,3.72
2022-10-23T11:11:32.388Z,3.38
2022-10-23T11:14:00.031Z,2.70
2022-10-23T11:16:34.386Z,3.95
2022-10-23T11:19:18.585Z,3.83
2022-10-23T11:22:12.243Z,3.60
2022-10-23T11:24:42.184Z,3.88
2022-10-23T11:27:20.560Z,3.58
2022-10-23T11:30:02.227Z,3.60
2022-10-23T11:32:49.363Z,3.47
2022-10-23T11:35:44.262Z,3.75
2022-10-23T11:38:39.258Z,3.40
2022-10-23T11:41:29.708Z,3.23
2022-10-23T11:44:05.964Z,3.25
2022-10-23T11:46:36.573Z,2.97
2022-10-23T11:49:06.588Z,3.10
2022-10-23T11:51:39.613Z,3.97
2022-10-23T11:54:15.689Z,2.92
2022-10-23T11:57:03.101Z,3.33
2022-10-23T11:59:35.778Z,3.42
2022-10-23T12:02:28.252Z,3.38
2022-10-23T12:04:56.588Z,3.97
2022-10-23T12:07:28.840Z,3.67
2022-10-23T12:10:17.899Z,4.13
2022-10-23T12:12:56.659Z,3.78
2022-10-23T12:15:26.322Z,3.75
2022-10-23T12:17:56.269Z,3.80
2022-10-23T12:20:38.702Z,3.22
2022-10-23T12:23:31.837Z,3.92
2022-10-23T12:26:17.701Z,4.07
2022-10-23T12:29:09.889Z,4.20
2022-10-23T12:32:02.503Z,4.60
2022-10-23T12:34:50.850Z,4.50
2022-10-23T12:37:31.340Z,4.40
2022-10-23T12:39:59.451Z,4.55
2022-10-23T12:42:30.389Z,4.03
2022-10-23T12:45:22.205Z,4.43
2022-10-23T12:47:50.829Z,4.22
2022-10-23T12:50:25.078Z,4.80
2022-10-23T12:52:53.610Z,4.63
2022-10-23T12:55:21.734Z,5.10
2022-10-23T12:57:49.739Z,5.07
2022-10-23T13:00:23.420Z,5.13
2022-10-23T13:03:01.925Z,5.03
2022-10-23T13:05:30.809Z,5.47
2022-10-23T13:07:59.875Z,5.10
2022-10-23T13:10:42.837Z,4.95
2022-10-23T13:13:12.288Z,6.40
2022-10-23T13:15:45.321Z,6.10
2022-10-23T13:18:14.799Z,5.50
2022-10-23T13:20:58.702Z,5.40
2022-10-23T13:23:36.419Z,5.15
2022-10-23T13:26:21.799Z,5.28
2022-10-23T13:28:50.150Z,6.13
2022-10-23T13:31:17.402Z,6.45
2022-10-23T13:34:16.473Z,6.38
2022-10-23T13:36:56.781Z,6.50
2022-10-23T13:39:27.580Z,5.50
2022-10-23T13:41:54.870Z,7.07
2022-10-23T13:44:24.720Z,6.80
2022-10-23T13:46:52.505Z,6.03
2022-10-23T13:49:20.201Z,6.30
2022-10-23T13:51:55.290Z,5.97
2022-10-23T13:56:59.935Z,6.15
2022-10-23T13:59:27.385Z,5.85
2022-10-23T14:01:54.919Z,6.65
2022-10-23T14:04:23.938Z,5.85
2022-10-23T14:06:55.069Z,5.70
2022-10-23T14:09:22.551Z,5.65
2022-10-23T14:11:49.930Z,6.10
2022-10-23T14:14:17.282Z,5.25
2022-10-23T14:16:44.558Z,6.03
2022-10-23T14:19:12.160Z,6.30
2022-10-23T14:21:39.607Z,6.28
2022-10-23T14:24:07.085Z,5.90
2022-10-23T14:26:35.671Z,5.93
2022-10-23T14:29:07.643Z,6.47
2022-10-23T14:31:38.775Z,6.50
2022-10-23T14:34:06.009Z,6.68
2022-10-23T14:36:43.598Z,6.75
2022-10-23T14:39:17.495Z,7.25
2022-10-23T14:41:44.902Z,9.00
2022-10-23T14:44:12.212Z,10.93
2022-10-23T14:46:39.635Z,12.15
2022-10-23T14:49:07.062Z,12.75
2022-10-23T14:51:34.542Z,13.32
2022-10-23T14:54:05.413Z,15.60
2022-10-23T14:56:36.485Z,15.57
2022-10-23T14:59:05.271Z,16.63
2022-10-23T15:01:35.185Z,18.33
2022-10-23T15:04:02.661Z,17.58
2022-10-23T15:06:29.971Z,17.45
2022-10-23T15:08:57.327Z,18.30
2022-10-23T15:11:25.816Z,18.70
2022-10-23T15:13:54.982Z,19.63
2022-10-23T15:16:23.637Z,19.23
2022-10-23T15:18:51.600Z,19.52
2022-10-23T15:21:19.262Z,19.15
2022-10-23T15:23:47.594Z,19.77
2022-10-23T15:26:21.253Z,19.00
2022-10-23T15:28:54.496Z,18.77
2022-10-23T15:31:30.950Z,19.08
2022-10-23T15:33:58.413Z,20.25
2022-10-23T15:36:26.839Z,19.90
2022-10-23T15:38:54.241Z,21.15
2022-10-23T15:41:28.395Z,22.02
2022-10-23T15:43:55.770Z,21.20
2022-10-23T15:46:23.643Z,22.05
2022-10-23T15:48:51.280Z,22.73
2022-10-23T15:51:18.718Z,23.50
2022-10-23T15:53:46.077Z,22.00
2022-10-23T15:56:13.417Z,22.38
2022-10-23T15:58:40.798Z,23.50
2022-10-23T16:01:08.651Z,23.13
2022-10-23T16:03:38.221Z,22.67
2022-10-23T16:06:11.419Z,22.38
2022-10-23T16:08:39.470Z,22.48
2022-10-23T16:11:32.353Z,22.05
2022-10-23T16:14:00.896Z,21.77
2022-10-23T16:16:29.432Z,21.98
2022-10-23T16:19:00.102Z,23.02
2022-10-23T16:21:31.433Z,21.95
2022-10-23T16:24:00.955Z,23.45
2022-10-23T16:26:30.027Z,22.15
2022-10-23T16:29:00.167Z,22.60
2022-10-23T16:31:28.471Z,21.17
2022-10-23T16:33:58.784Z,20.00
2022-10-23T16:36:26.773Z,19.38
2022-10-23T16:39:18.273Z,20.13
2022-10-23T16:42:06.308Z,19.52
2022-10-23T16:44:57.206Z,21.15
2022-10-23T16:47:24.821Z,21.50
2022-10-23T16:49:52.212Z,19.85
2022-10-23T16:52:19.588Z,20.67
2022-10-23T16:54:46.910Z,21.23
2022-10-23T16:57:14.236Z,21.10
2022-10-23T16:59:41.737Z,22.45
2022-10-23T17:02:13.273Z,22.08
2022-10-23T17:04:40.993Z,22.42
2022-10-23T17:07:08.472Z,23.40
2022-10-23T17:09:36.100Z,22.10
2022-10-23T17:12:03.515Z,20.75
2022-10-23T17:14:30.879Z,23.00
2022-10-23T17:17:01.812Z,22.55
2022-10-23T17:19:44.718Z,23.10
2022-10-23T17:22:13.591Z,22.88
2022-10-23T17:24:45.339Z,23.20
2022-10-23T17:27:15.083Z,22.75
2022-10-23T17:29:42.530Z,23.67
2022-10-23T17:32:09.987Z,24.10
2022-10-23T17:34:38.237Z,22.83
2022-10-23T17:37:05.713Z,21.77
2022-10-23T17:39:33.124Z,18.63
2022-10-23T17:42:00.504Z,19.50
2022-10-23T17:44:29.493Z,17.80
2022-10-23T17:46:57.105Z,18.92
2022-10-23T17:49:25.207Z,15.98
2022-10-23T17:51:57.649Z,15.18
2022-10-23T17:54:26.857Z,14.68
2022-10-23T17:56:54.594Z,18.52
2022-10-23T17:59:22.895Z,14.45
2022-10-23T18:01:50.728Z,14.77
2022-10-23T18:04:20.320Z,15.07
2022-10-23T18:06:50.978Z,14.77
2022-10-23T18:09:22.965Z,14.38
2022-10-23T18:11:51.028Z,13.45
2022-10-23T18:14:20.269Z,13.20
2022-10-23T18:16:48.519Z,13.98
2022-10-23T18:19:18.446Z,14.48
2022-10-23T18:21:47.223Z,14.40
2022-10-23T18:24:15.526Z,14.57
2022-10-23T18:26:43.819Z,14.07
2022-10-23T18:29:12.671Z,14.90
2022-10-23T18:31:40.765Z,13.48
2022-10-23T18:34:18.344Z,13.75
2022-10-23T18:36:46.069Z,13.85
2022-10-23T18:39:16.513Z,14.18
2022-10-23T18:41:46.300Z,13.95
2022-10-23T18:44:20.745Z,14.20
2022-10-23T18:46:48.900Z,13.98
2022-10-23T18:49:18.757Z,13.70
2022-10-23T18:51:46.226Z,13.63
2022-10-23T18:54:15.702Z,13.65
2022-10-23T18:56:44.179Z,15.13
2022-10-23T18:59:15.201Z,14.65
2022-10-23T19:01:43.425Z,23.27
2022-10-23T19:04:16.310Z,24.33
2022-10-23T19:06:45.015Z,19.35
2022-10-23T19:09:14.184Z,21.83
2022-10-23T19:11:42.884Z,19.30
2022-10-23T19:14:10.327Z,17.83
2022-10-23T19:16:47.072Z,16.45
2022-10-23T19:19:21.580Z,19.00
2022-10-23T19:21:50.267Z,17.17
2022-10-23T19:24:25.205Z,26.13
2022-10-23T19:26:52.623Z,46.08
2022-10-23T19:29:22.709Z,15.88
2022-10-23T19:31:50.493Z,15.93
2022-10-23T19:34:20.330Z,15.27
2022-10-23T19:36:48.669Z,15.43
2022-10-23T19:39:17.387Z,14.18
2022-10-23T19:41:45.739Z,15.00
2022-10-23T19:44:16.062Z,15.02
2022-10-23T19:46:43.830Z,14.77
2022-10-23T19:49:11.780Z,15.32
2022-10-23T19:51:39.491Z,14.73
2022-10-23T19:54:07.256Z,15.48
2022-10-23T19:56:36.140Z,16.40
2022-10-23T19:59:03.744Z,14.20
2022-10-23T20:01:31.491Z,14.48
2022-10-23T20:03:59.201Z,13.60
2022-10-23T20:06:29.950Z,14.35
2022-10-23T20:08:58.017Z,13.52
2022-10-23T20:11:31.316Z,14.50
2022-10-23T20:13:58.919Z,12.75
2022-10-23T20:16:32.602Z,12.25
2022-10-23T20:19:07.071Z,11.70
2022-10-23T20:21:39.346Z,12.47
2022-10-23T20:24:07.511Z,12.45
2022-10-23T20:26:35.091Z,11.93
2022-10-23T20:29:02.476Z,10.45
2022-10-23T20:31:29.896Z,8.95
2022-10-23T20:33:57.505Z,8.40
2022-10-23T20:36:35.829Z,8.55
2022-10-23T20:39:06.531Z,8.70
2022-10-23T20:41:37.074Z,7.95
2022-10-23T20:44:07.242Z,7.63
2022-10-23T20:46:35.015Z,8.32
2022-10-23T20:49:02.837Z,8.30
2022-10-23T20:51:30.268Z,7.82
2022-10-23T20:53:57.962Z,7.55
2022-10-23T20:56:38.878Z,7.80
2022-10-23T20:59:14.747Z,8.00
2022-10-23T21:01:49.816Z,7.05
2022-10-23T21:04:23.720Z,7.75
2022-10-23T21:07:10.309Z,7.25
2022-10-23T21:09:38.553Z,7.28
2022-10-23T21:12:06.935Z,7.75
2022-10-23T21:14:34.960Z,7.13
2022-10-23T21:17:02.572Z,7.32
2022-10-23T21:19:30.024Z,6.78
2022-10-23T21:21:57.521Z,6.93
2022-10-23T21:24:24.997Z,6.95
2022-10-23T21:26:52.507Z,6.43
2022-10-23T21:29:20.714Z,7.00
2022-10-23T21:31:56.291Z,6.65
2022-10-23T21:34:25.213Z,6.70
2022-10-23T21:39:41.017Z,17.27
2022-10-23T21:42:08.805Z,18.00
2022-10-23T21:44:36.324Z,20.42
2022-10-23T21:47:04.060Z,23.00
2022-10-23T21:49:31.438Z,21.90
2022-10-23T21:51:58.767Z,21.58
2022-10-23T21:54:26.048Z,21.13
2022-10-23T21:56:54.108Z,20.10
2022-10-23T21:59:25.782Z,18.98
2022-10-23T22:01:55.312Z,18.52
2022-10-23T22:04:22.793Z,18.48
2022-10-23T22:06:50.154Z,17.00
2022-10-23T22:09:20.063Z,16.90
2022-10-23T22:11:52.805Z,17.42
2022-10-23T22:14:21.143Z,18.40
2022-10-23T22:16:49.039Z,17.30
2022-10-23T22:19:18.232Z,18.23
2022-10-23T22:21:46.654Z,17.67
2022-10-23T22:24:14.389Z,17.58
2022-10-23T22:26:44.742Z,17.42
2022-10-23T22:29:15.083Z,17.35
2022-10-23T22:31:45.576Z,18.02
2022-10-23T22:34:41.110Z,18.40
2022-10-23T22:37:12.095Z,19.08
2022-10-23T22:39:39.967Z,18.27
2022-10-23T22:42:07.438Z,18.20
2022-10-23T22:44:34.751Z,17.33
2022-10-23T22:47:04.313Z,15.20
2022-10-23T22:49:31.593Z,14.85
2022-10-23T22:51:58.908Z,16.35
2022-10-23T22:54:26.373Z,14.35
2022-10-23T22:56:53.700Z,13.20
2022-10-23T22:59:21.104Z,12.30
2022-10-23T23:01:49.868Z,10.68
2022-10-23T23:07:11.525Z,10.55
2022-10-23T23:09:41.680Z,10.07
2022-10-23T23:12:11.345Z,10.40
2022-10-23T23:14:39.351Z,9.80
2022-10-23T23:17:08.109Z,9.77
2022-10-23T23:19:36.186Z,10.05
2022-10-23T23:22:03.992Z,9.18
2022-10-23T23:24:32.363Z,6.68
2022-10-23T23:26:59.787Z,7.75
2022-10-23T23:29:28.565Z,6.70
2022-10-23T23:31:55.843Z,6.45
2022-10-23T23:34:23.191Z,6.47
2022-10-23T23:36:50.563Z,5.30
2022-10-23T23:39:17.899Z,5.88
2022-10-23T23:41:45.185Z,6.13
2022-10-23T23:44:14.110Z,6.38
2022-10-23T23:46:41.400Z,6.03
2022-10-23T23:49:08.684Z,6.18
2022-10-23T23:51:37.409Z,7.00
2022-10-23T23:54:05.714Z,7.93
2022-10-23T23:56:33.026Z,7.72
2022-10-23T23:59:01.846Z,7.53
